Time;durP1;ratioP1;P1;durP2;ratioP2;P2;SDS_P1;SDS_P2;PMS_P1;PMS_P2;Temp;Humidity;BMP_temperature;BMP_pressure;BME280_temperature;BME280_humidity;BME280_pressure;Samples;Min_cycle;Max_cycle;Signal;HPM_P1;HPM_P2
2023/08/31 00:02:06;;;;;;;18.58;13.25;;;;;;;25.18;100.00;99410.34;5133981;27;20114;-76
2023/08/31 00:04:32;;;;;;;22.38;13.63;;;;;;;24.78;100.00;99337.16;5135315;27;20026;-74
2023/08/31 00:06:57;;;;;;;22.58;14.57;;;;;;;25.00;100.00;99361.91;5116532;27;20083;-76
2023/08/31 00:09:26;;;;;;;16.38;14.13;;;;;;;24.85;100.00;99325.19;5135402;27;20027;-76
2023/08/31 00:11:51;;;;;;;17.38;13.57;;;;;;;24.83;100.00;99334.91;5134567;27;20027;-77
2023/08/31 00:14:17;;;;;;;21.95;14.80;;;;;;;25.26;100.00;99431.25;5134998;27;20134;-77
2023/08/31 00:16:45;;;;;;;18.83;13.95;;;;;;;25.30;100.00;99436.97;5135104;27;20027;-76
2023/08/31 00:19:11;;;;;;;20.13;14.38;;;;;;;24.84;100.00;99372.97;5116898;27;20041;-79
2023/08/31 00:21:36;;;;;;;17.40;14.10;;;;;;;25.15;100.00;99423.69;5135125;27;20469;-77
2023/08/31 00:24:02;;;;;;;20.75;14.00;;;;;;;24.74;100.00;99374.84;5134696;27;20068;-79
2023/08/31 00:26:30;;;;;;;18.15;13.15;;;;;;;24.66;100.00;99359.13;5116806;27;20070;-77
2023/08/31 00:28:56;;;;;;;18.65;14.15;;;;;;;25.11;100.00;99432.75;5116685;27;20023;-76
2023/08/31 00:31:21;;;;;;;18.70;13.35;;;;;;;24.40;100.00;99350.38;5134679;27;20084;-78
2023/08/31 00:33:48;;;;;;;20.25;13.48;;;;;;;24.74;100.00;99439.84;5134238;27;20080;-76
2023/08/31 00:36:14;;;;;;;17.63;12.75;;;;;;;24.90;100.00;99472.03;5134875;27;20035;-76
2023/08/31 00:38:39;;;;;;;18.35;13.73;;;;;;;25.17;100.00;99472.97;5135114;27;20027;-75
2023/08/31 00:41:05;;;;;;;18.38;14.40;;;;;;;25.11;100.00;99479.59;5134646;27;20069;-76
2023/08/31 00:43:31;;;;;;;16.75;12.80;;;;;;;24.86;100.00;99421.28;5134274;27;20422;-75
2023/08/31 00:45:58;;;;;;;17.90;12.77;;;;;;;24.55;100.00;99369.72;5116127;27;20023;-77
2023/08/31 00:48:24;;;;;;;15.95;13.20;;;;;;;25.15;100.00;99434.09;5134433;27;20473;-77
2023/08/31 00:50:50;;;;;;;15.98;13.13;;;;;;;25.16;100.00;99473.94;5115873;27;20027;-77
2023/08/31 00:53:17;;;;;;;20.77;13.70;;;;;;;24.42;100.00;99413.44;5134387;27;20818;-76
2023/08/31 00:55:47;;;;;;;14.93;13.32;;;;;;;24.77;100.00;99460.34;5134079;27;20031;-78
2023/08/31 00:58:13;;;;;;;18.70;13.32;;;;;;;24.15;100.00;99359.66;5134218;27;20607;-78
2023/08/31 01:01:09;;;;;;;18.05;13.75;;;;;;;24.80;100.00;99457.44;5115681;27;20412;-72
2023/08/31 01:03:40;;;;;;;18.10;13.48;;;;;;;25.08;100.00;99460.88;5134031;27;20027;-76
2023/08/31 01:06:43;;;;;;;19.27;13.70;;;;;;;25.12;100.00;99486.41;5134142;27;20039;-78
2023/08/31 01:09:43;;;;;;;15.48;12.98;;;;;;;24.80;100.00;99491.25;5134026;27;20485;-74
2023/08/31 01:12:22;;;;;;;19.10;14.27;;;;;;;24.16;100.00;99391.66;5114686;27;20027;-77
2023/08/31 01:15:02;;;;;;;22.48;14.68;;;;;;;24.64;100.00;99488.47;5133616;27;20019;-77
2023/08/31 01:17:30;;;;;;;18.92;13.70;;;;;;;24.61;100.00;99480.94;5133915;27;20033;-75
2023/08/31 01:19:59;;;;;;;18.73;14.52;;;;;;;24.62;100.00;99464.38;5115894;27;20035;-76
2023/08/31 01:22:27;;;;;;;18.10;14.60;;;;;;;24.51;100.00;99462.78;5133748;27;20019;-77
2023/08/31 01:24:53;;;;;;;17.67;14.75;;;;;;;24.25;100.00;99442.75;5133863;27;20034;-76
2023/08/31 01:27:20;;;;;;;20.35;14.73;;;;;;;23.98;100.00;99417.53;5133375;27;20050;-77
2023/08/31 01:29:45;;;;;;;22.25;14.68;;;;;;;24.46;100.00;99461.56;5133444;27;20080;-78
2023/08/31 01:32:10;;;;;;;16.05;13.50;;;;;;;23.94;100.00;99385.84;5133286;27;20088;-76
2023/08/31 01:34:51;;;;;;;17.40;14.85;;;;;;;24.39;100.00;99439.69;5132822;27;20031;-76
2023/08/31 01:37:37;;;;;;;17.15;14.20;;;;;;;24.05;100.00;99410.84;5133423;27;20059;-76
2023/08/31 01:40:10;;;;;;;22.02;14.65;;;;;;;24.20;100.00;99447.59;5133417;27;20028;-75
2023/08/31 01:42:36;;;;;;;15.05;13.55;;;;;;;24.34;100.00;99457.53;5133075;27;20031;-75
2023/08/31 01:45:04;;;;;;;18.48;14.23;;;;;;;24.17;100.00;99445.25;5132955;27;20042;-74
2023/08/31 01:47:31;;;;;;;20.48;15.18;;;;;;;24.44;100.00;99484.28;5115093;27;20033;-76
2023/08/31 01:49:56;;;;;;;17.77;14.23;;;;;;;24.03;100.00;99496.72;5115101;27;20038;-78
2023/08/31 01:52:22;;;;;;;19.75;14.43;;;;;;;24.17;100.00;99440.06;5133108;27;20051;-78
2023/08/31 01:54:48;;;;;;;17.52;14.55;;;;;;;23.90;100.00;99451.19;5133049;27;20031;-75
2023/08/31 01:57:13;;;;;;;22.13;14.88;;;;;;;24.22;100.00;99472.47;5132457;27;20473;-76
2023/08/31 01:59:38;;;;;;;17.38;14.07;;;;;;;23.91;100.00;99445.84;5115158;27;20054;-76
2023/08/31 02:02:04;;;;;;;18.05;14.63;;;;;;;23.74;100.00;99417.19;5133135;27;20038;-77
2023/08/31 02:04:29;;;;;;;17.38;14.57;;;;;;;24.18;100.00;99498.88;5114647;27;20027;-77
2023/08/31 02:06:55;;;;;;;17.02;14.18;;;;;;;24.35;100.00;99505.94;5133256;27;20042;-76
2023/08/31 02:09:20;;;;;;;17.83;14.48;;;;;;;24.20;100.00;99512.53;5132525;27;20084;-76
2023/08/31 02:11:46;;;;;;;17.00;14.55;;;;;;;24.15;100.00;99462.75;5114408;28;20038;-76
2023/08/31 02:14:11;;;;;;;19.23;13.90;;;;;;;24.13;100.00;99534.88;5115228;28;20030;-77
2023/08/31 02:16:37;;;;;;;18.08;14.05;;;;;;;23.87;100.00;99467.03;5133004;28;20390;-76
2023/08/31 02:19:02;;;;;;;18.75;14.50;;;;;;;23.50;100.00;99440.16;5132930;28;20106;-76
2023/08/31 02:21:28;;;;;;;17.02;14.50;;;;;;;23.57;100.00;99428.28;5114345;28;20504;-76
2023/08/31 02:23:53;;;;;;;19.58;14.80;;;;;;;23.78;100.00;99486.06;5133242;27;20039;-77
2023/08/31 02:26:19;;;;;;;17.77;14.82;;;;;;;24.01;100.00;99519.38;5135758;27;20080;-75
2023/08/31 02:28:44;;;;;;;21.60;15.10;;;;;;;24.28;100.00;99516.09;5118380;27;20031;-75
2023/08/31 02:31:11;;;;;;;17.65;14.93;;;;;;;23.89;100.00;99524.84;5119345;27;20034;-76
2023/08/31 02:33:37;;;;;;;19.63;15.52;;;;;;;23.51;100.00;99465.19;5144866;27;20024;-76
2023/08/31 02:36:02;;;;;;;18.30;14.73;;;;;;;23.58;100.00;99459.28;5144922;27;20093;-75
2023/08/31 02:38:28;;;;;;;18.45;14.82;;;;;;;23.79;100.00;99498.09;5157702;27;20053;-76
2023/08/31 02:40:53;;;;;;;18.73;14.35;;;;;;;24.23;100.00;99517.44;5138586;27;20094;-75
2023/08/31 02:43:18;;;;;;;22.20;15.60;;;;;;;23.79;100.00;99511.88;5157430;27;20520;-76
2023/08/31 02:45:44;;;;;;;18.80;15.05;;;;;;;23.96;100.00;99498.22;5139630;27;20031;-76
2023/08/31 02:48:10;;;;;;;19.95;15.48;;;;;;;23.96;100.00;99508.59;5157533;27;20023;-76
2023/08/31 02:50:35;;;;;;;17.90;15.98;;;;;;;23.99;100.00;99495.31;5159048;27;20026;-77
2023/08/31 02:53:01;;;;;;;22.48;16.73;;;;;;;24.00;100.00;99514.34;5174871;27;20068;-77
2023/08/31 02:55:27;;;;;;;18.38;16.38;;;;;;;23.96;100.00;99500.81;5168172;27;20030;-73
2023/08/31 02:57:54;;;;;;;17.95;16.00;;;;;;;24.03;100.00;99490.69;5138843;27;20393;-78
2023/08/31 03:00:21;;;;;;;28.48;17.33;;;;;;;24.00;100.00;99467.56;5157518;27;20031;-76
2023/08/31 03:02:52;;;;;;;18.98;16.92;;;;;;;23.86;100.00;99458.44;5138983;27;20034;-76
2023/08/31 03:05:21;;;;;;;;;;;;;;;23.78;100.00;99466.13;5157347;27;20038;-75
2023/08/31 03:07:46;;;;;;;20.75;17.23;;;;;;;23.39;100.00;99391.00;5138874;27;19911;-78
2023/08/31 03:10:12;;;;;;;22.95;16.65;;;;;;;23.70;100.00;99444.38;5138465;27;20023;-75
2023/08/31 03:12:37;;;;;;;18.83;16.42;;;;;;;23.66;100.00;99450.81;5156755;27;20481;-75
2023/08/31 03:15:05;;;;;;;20.08;16.73;;;;;;;23.56;100.00;99432.66;5137682;27;20480;-73
2023/08/31 03:17:31;;;;;;;21.52;16.13;;;;;;;23.60;100.00;99459.97;5156570;27;21016;-75
2023/08/31 03:19:56;;;;;;;24.08;16.08;;;;;;;23.55;100.00;99458.75;5137928;27;20042;-75
2023/08/31 03:22:21;;;;;;;22.45;16.30;;;;;;;23.38;100.00;99468.03;5156061;27;20037;-75
2023/08/31 03:24:47;;;;;;;22.33;16.17;;;;;;;22.94;100.00;99414.03;5156566;27;20033;-75
2023/08/31 03:27:12;;;;;;;17.73;15.48;;;;;;;22.93;100.00;99412.41;5137398;27;20026;-76
2023/08/31 03:29:39;;;;;;;24.65;16.45;;;;;;;23.17;100.00;99488.06;5156059;27;20548;-76
2023/08/31 03:32:04;;;;;;;19.77;16.60;;;;;;;22.96;100.00;99485.56;5127336;27;20046;-73
2023/08/31 03:34:31;;;;;;;19.73;16.30;;;;;;;23.02;100.00;99503.19;5128998;27;20486;-76
2023/08/31 03:36:57;;;;;;;18.20;16.20;;;;;;;22.59;100.00;99458.59;5112998;28;20035;-77
2023/08/31 03:39:24;;;;;;;20.15;15.95;;;;;;;22.60;100.00;99469.78;5096659;28;20027;-76
2023/08/31 03:41:49;;;;;;;18.95;16.92;;;;;;;22.40;100.00;99422.22;5115296;28;20504;-76
2023/08/31 03:44:14;;;;;;;25.45;16.83;;;;;;;23.03;100.00;99517.81;5098220;27;20039;-74
2023/08/31 03:46:40;;;;;;;21.13;17.35;;;;;;;22.75;100.00;99482.25;5113724;27;20407;-74
2023/08/31 03:49:05;;;;;;;25.42;17.27;;;;;;;22.68;100.00;99498.47;5116733;27;20019;-75
2023/08/31 03:51:31;;;;;;;23.33;17.85;;;;;;;23.01;100.00;99550.00;5134489;27;20417;-74
2023/08/31 03:53:56;;;;;;;23.42;16.70;;;;;;;22.84;100.00;99553.25;5134754;27;20051;-74
2023/08/31 03:56:22;;;;;;;20.95;16.27;;;;;;;23.28;100.00;99545.03;5134390;27;20058;-77
2023/08/31 03:58:48;;;;;;;24.00;17.35;;;;;;;23.05;100.00;99553.97;5134906;27;20477;-75
2023/08/31 04:01:14;;;;;;;22.30;17.30;;;;;;;23.01;100.00;99557.78;5134637;27;20406;-73
2023/08/31 04:03:40;;;;;;;21.00;17.13;;;;;;;22.78;100.00;99570.13;5134739;27;20023;-74
2023/08/31 04:06:05;;;;;;;22.83;16.50;;;;;;;22.67;100.00;99539.09;5116100;27;20549;-75
2023/08/31 04:08:31;;;;;;;21.40;15.82;;;;;;;22.88;100.00;99552.81;5115743;27;20020;-75
2023/08/31 04:10:56;;;;;;;19.77;15.50;;;;;;;22.45;100.00;99521.09;5135101;27;20549;-76
2023/08/31 04:13:22;;;;;;;20.08;16.30;;;;;;;22.53;100.00;99536.81;5115866;27;20426;-75
2023/08/31 04:15:47;;;;;;;19.98;16.00;;;;;;;22.89;100.00;99585.59;5134489;27;20031;-75
2023/08/31 04:18:13;;;;;;;20.08;16.80;;;;;;;22.53;100.00;99533.41;5116208;27;20031;-76
2023/08/31 04:20:39;;;;;;;24.27;16.92;;;;;;;22.82;100.00;99594.84;5133900;27;20536;-75
2023/08/31 04:23:04;;;;;;;22.83;17.48;;;;;;;22.81;100.00;99603.56;5134215;27;20049;-76
2023/08/31 04:25:33;;;;;;;23.55;17.55;;;;;;;22.39;100.00;99558.72;5134185;27;20497;-76
2023/08/31 04:27:58;;;;;;;23.08;17.23;;;;;;;22.88;100.00;99627.19;5116115;27;20035;-75
2023/08/31 04:30:23;;;;;;;22.00;16.92;;;;;;;22.68;100.00;99568.44;5134128;27;20096;-76
2023/08/31 04:32:49;;;;;;;24.88;16.50;;;;;;;23.25;100.00;99630.94;5116070;27;20465;-74
2023/08/31 04:35:14;;;;;;;25.42;18.35;;;;;;;22.95;100.00;99595.47;5134634;27;20050;-76
2023/08/31 04:37:40;;;;;;;21.65;17.85;;;;;;;22.92;100.00;99642.38;5134190;27;20114;-76
2023/08/31 04:40:06;;;;;;;22.30;17.05;;;;;;;22.82;100.00;99625.16;5133520;27;20038;-75
2023/08/31 04:42:31;;;;;;;19.88;17.02;;;;;;;22.92;100.00;99590.50;5133805;27;20034;-74
2023/08/31 04:44:57;;;;;;;24.23;16.77;;;;;;;23.09;100.00;99633.19;5134027;27;20027;-75
2023/08/31 04:47:22;;;;;;;22.23;17.75;;;;;;;22.76;100.00;99591.97;5133404;27;20034;-75
2023/08/31 04:49:48;;;;;;;20.17;17.20;;;;;;;23.15;100.00;99643.88;5134343;27;20027;-75
2023/08/31 04:52:13;;;;;;;21.65;17.63;;;;;;;23.23;100.00;99646.59;5134174;27;20113;-76
2023/08/31 04:54:39;;;;;;;25.95;17.38;;;;;;;23.52;100.00;99648.50;5134364;27;20027;-75
2023/08/31 04:57:07;;;;;;;24.77;17.45;;;;;;;23.54;100.00;99655.22;5115299;27;20080;-76
2023/08/31 04:59:32;;;;;;;20.20;16.67;;;;;;;23.08;100.00;99608.19;5115096;27;20481;-75
2023/08/31 05:01:57;;;;;;;18.92;17.08;;;;;;;23.37;100.00;99609.16;5133247;27;20134;-76
2023/08/31 05:04:23;;;;;;;21.30;16.30;;;;;;;23.74;100.00;99646.50;5115589;27;20035;-74
2023/08/31 05:06:48;;;;;;;23.73;16.35;;;;;;;23.28;100.00;99594.31;5133591;27;20062;-75
2023/08/31 05:09:14;;;;;;;21.35;16.70;;;;;;;24.11;100.00;99697.88;5133472;27;20027;-78
2023/08/31 05:11:39;;;;;;;19.27;16.40;;;;;;;23.89;100.00;99637.38;5133150;27;20027;-78
2023/08/31 05:14:05;;;;;;;19.80;15.75;;;;;;;24.02;100.00;99645.75;5133468;27;20113;-77
2023/08/31 05:16:30;;;;;;;20.13;15.65;;;;;;;24.46;100.00;99711.97;5133836;27;20065;-76
2023/08/31 05:18:55;;;;;;;33.50;20.77;;;;;;;24.84;100.00;99717.16;5134013;27;20059;-72
2023/08/31 05:21:21;;;;;;;21.60;15.80;;;;;;;24.64;100.00;99736.31;5115452;27;20039;-75
2023/08/31 05:23:46;;;;;;;24.73;15.50;;;;;;;25.24;100.00;99745.53;5133068;27;20558;-76
2023/08/31 05:26:12;;;;;;;17.48;15.02;;;;;;;25.18;100.00;99701.84;5133232;27;20031;-77
2023/08/31 05:28:37;;;;;;;23.75;16.15;;;;;;;25.54;100.00;99745.34;5133496;27;20027;-75
2023/08/31 05:31:03;;;;;;;20.23;15.73;;;;;;;25.11;100.00;99702.56;5114576;27;20027;-76
2023/08/31 05:33:33;;;;;;;18.73;15.77;;;;;;;25.29;100.00;99709.50;5115396;27;20027;-76
2023/08/31 05:36:00;;;;;;;24.17;16.80;;;;;;;24.93;100.00;99716.31;5133646;27;20066;-77
2023/08/31 05:38:26;;;;;;;27.60;16.80;;;;;;;25.32;100.00;99761.28;5133761;27;20027;-78
2023/08/31 05:40:51;;;;;;;40.88;17.13;;;;;;;25.88;100.00;99729.94;5133499;27;20046;-77
2023/08/31 05:43:17;;;;;;;43.40;35.33;;;;;;;25.89;100.00;99728.97;5133654;27;20019;-77
2023/08/31 05:45:42;;;;;;;32.03;20.58;;;;;;;25.85;100.00;99776.31;5133654;27;20474;-75
2023/08/31 05:48:08;;;;;;;28.60;17.48;;;;;;;25.44;100.00;99774.97;5133392;27;20073;-79
2023/08/31 05:50:34;;;;;;;24.90;17.60;;;;;;;25.38;100.00;99765.91;5133172;27;20023;-76
2023/08/31 05:52:59;;;;;;;23.55;17.35;;;;;;;25.96;100.00;99750.88;5114619;27;20047;-76
2023/08/31 05:55:25;;;;;;;20.27;17.08;;;;;;;26.64;100.00;99763.31;5132689;27;20039;-77
2023/08/31 05:57:50;;;;;;;24.55;16.95;;;;;;;26.67;100.00;99693.53;5132759;27;20031;-75
2023/08/31 06:00:17;;;;;;;26.52;17.02;;;;;;;26.83;100.00;99782.41;5132133;27;20035;-76
2023/08/31 06:02:46;;;;;;;23.02;17.23;;;;;;;27.07;100.00;99759.94;5132340;27;20058;-75
2023/08/31 06:05:12;;;;;;;24.00;16.80;;;;;;;27.48;100.00;99813.25;5116515;27;20031;-75
2023/08/31 06:07:38;;;;;;;20.27;15.80;;;;;;;27.61;100.00;99798.00;5116180;27;20023;-76
2023/08/31 06:10:05;;;;;;;22.10;15.65;;;;;;;27.26;100.00;99754.50;5134245;27;20462;-78
2023/08/31 06:12:31;;;;;;;27.50;14.73;;;;;;;28.25;100.00;99818.38;5115023;28;20614;-79
2023/08/31 06:14:56;;;;;;;18.75;15.05;;;;;;;27.97;100.00;99840.53;5115196;28;20126;-81
2023/08/31 06:17:21;;;;;;;23.73;16.15;;;;;;;28.02;100.00;99792.00;5141135;28;20480;-80
2023/08/31 06:19:47;;;;;;;29.48;16.33;;;;;;;28.37;100.00;99843.25;5132979;28;20437;-76
2023/08/31 06:22:13;;;;;;;25.75;15.18;;;;;;;28.09;100.00;99800.00;5116256;28;20023;-78
2023/08/31 06:24:38;;;;;;;25.90;14.65;;;;;;;28.27;100.00;99811.19;5133078;28;20119;-77
2023/08/31 06:27:04;;;;;;;26.02;14.32;;;;;;;28.84;100.00;99846.16;5114598;28;20111;-78
2023/08/31 06:29:29;;;;;;;23.23;14.52;;;;;;;28.74;100.00;99843.69;5133241;28;20031;-78
2023/08/31 06:31:55;;;;;;;18.75;14.48;;;;;;;27.63;100.00;99801.28;5114703;28;20042;-79
2023/08/31 06:34:20;;;;;;;21.73;14.13;;;;;;;27.50;100.00;99759.06;5114309;28;20424;-77
2023/08/31 06:36:46;;;;;;;24.23;15.60;;;;;;;27.93;100.00;99841.78;5114552;28;20130;-80
2023/08/31 06:39:11;;;;;;;29.17;15.13;;;;;;;28.99;100.00;99834.88;5133061;28;20019;-79
2023/08/31 06:41:36;;;;;;;22.50;14.60;;;;;;;28.85;100.00;99848.63;5133234;27;20485;-80
2023/08/31 06:44:02;;;;;;;20.98;13.95;;;;;;;29.06;100.00;99869.91;5139355;28;20068;-73
2023/08/31 06:46:28;;;;;;;16.92;13.18;;;;;;;28.31;100.00;99888.38;5115248;28;20095;-78
2023/08/31 06:48:53;;;;;;;14.07;12.35;;;;;;;29.20;100.00;99891.22;5132973;27;20023;-78
2023/08/31 06:51:19;;;;;;;14.75;11.25;;;;;;;29.65;100.00;99921.13;5132335;28;20028;-79
2023/08/31 06:53:44;;;;;;;15.82;10.75;;;;;;;29.87;100.00;99959.03;5113958;28;20509;-79
2023/08/31 06:56:10;;;;;;;13.45;10.45;;;;;;;29.14;100.00;100000.09;5108706;27;20036;-78
2023/08/31 06:58:35;;;;;;;13.45;10.55;;;;;;;29.39;100.00;100017.50;5112107;28;20459;-76
2023/08/31 07:01:05;;;;;;;14.93;10.27;;;;;;;29.59;100.00;100031.94;5110896;28;20486;-78
2023/08/31 07:03:31;;;;;;;17.13;11.40;;;;;;;30.30;100.00;100005.03;5094149;28;20027;-77
2023/08/31 07:05:56;;;;;;;15.43;10.98;;;;;;;30.59;100.00;100050.72;5112655;28;20053;-77
2023/08/31 07:08:22;;;;;;;14.40;9.82;;;;;;;29.94;100.00;100078.03;5111904;28;20147;-76
2023/08/31 07:10:50;;;;;;;13.85;10.40;;;;;;;30.10;100.00;100071.94;5113930;28;20023;-76
2023/08/31 07:13:15;;;;;;;13.27;10.70;;;;;;;29.77;100.00;100029.19;5114812;28;20432;-78
2023/08/31 07:15:41;;;;;;;12.18;10.65;;;;;;;30.25;100.00;100023.06;5115907;28;20093;-75
2023/08/31 07:18:07;;;;;;;13.88;11.20;;;;;;;30.73;100.00;100012.41;5115539;28;20413;-76
2023/08/31 07:20:33;;;;;;;16.40;10.63;;;;;;;31.25;100.00;100081.81;5115707;28;20031;-76
2023/08/31 07:22:59;;;;;;;12.95;10.57;;;;;;;31.06;100.00;100040.19;5088601;28;20028;-78
2023/08/31 07:25:25;;;;;;;14.15;10.68;;;;;;;31.21;100.00;100084.97;5115647;28;20759;-79
2023/08/31 07:27:50;;;;;;;14.00;10.38;;;;;;;30.84;100.00;100061.16;5115456;28;20587;-77
2023/08/31 07:30:16;;;;;;;16.27;10.13;;;;;;;31.11;100.00;100111.47;5115340;28;20072;-74
2023/08/31 07:32:41;;;;;;;13.90;10.23;;;;;;;30.80;100.00;100066.72;5115308;28;20089;-78
2023/08/31 07:35:07;;;;;;;12.50;9.52;;;;;;;30.59;100.00;100028.88;5096991;28;20072;-78
2023/08/31 07:37:33;;;;;;;15.27;9.57;;;;;;;31.31;100.00;100051.41;5115731;28;20414;-76
2023/08/31 07:39:58;;;;;;;11.27;9.07;;;;;;;31.61;100.00;100066.34;5115489;28;20023;-76
2023/08/31 07:42:23;;;;;;;11.70;9.20;;;;;;;30.52;100.00;100141.66;5113894;28;20110;-76
2023/08/31 07:44:49;;;;;;;14.38;8.98;;;;;;;31.26;100.00;100095.75;5114114;28;20114;-76
2023/08/31 07:47:14;;;;;;;11.45;8.88;;;;;;;32.09;100.00;100117.81;5096667;28;20035;-75
2023/08/31 07:49:40;;;;;;;9.15;7.50;;;;;;;31.34;100.00;100140.41;5113742;28;20032;-74
2023/08/31 07:52:05;;;;;;;8.60;7.60;;;;;;;31.21;100.00;100140.16;5114537;28;20545;-74
2023/08/31 07:54:30;;;;;;;8.35;7.32;;;;;;;32.30;100.00;100124.03;5114052;28;20088;-77
2023/08/31 07:56:56;;;;;;;8.50;7.70;;;;;;;32.45;100.00;100116.16;5115061;28;20051;-74
2023/08/31 07:59:21;;;;;;;10.98;8.15;;;;;;;31.70;100.00;100138.09;5114600;28;20066;-75
2023/08/31 08:01:48;;;;;;;11.65;7.95;;;;;;;32.22;100.00;100112.75;5114631;28;20122;-75
2023/08/31 08:04:13;;;;;;;11.85;7.28;;;;;;;32.09;100.00;100065.97;5114599;28;20023;-75
2023/08/31 08:06:39;;;;;;;11.55;7.50;;;;;;;32.47;100.00;100108.09;5114775;28;20023;-77
2023/08/31 08:09:04;;;;;;;9.43;7.30;;;;;;;32.49;100.00;100079.78;5114010;28;20032;-78
2023/08/31 08:11:30;;;;;;;8.38;7.47;;;;;;;32.72;100.00;100040.97;5114464;28;20033;-75
2023/08/31 08:13:56;;;;;;;11.32;7.28;;;;;;;32.85;100.00;100104.38;5114521;28;20023;-75
2023/08/31 08:16:21;;;;;;;9.75;7.32;;;;;;;32.66;100.00;100041.69;5114682;28;20046;-78
2023/08/31 08:18:47;;;;;;;8.45;7.43;;;;;;;32.34;100.00;100109.50;5114365;28;20035;-78
2023/08/31 08:21:12;;;;;;;9.88;6.90;;;;;;;33.34;100.00;100083.50;5114250;28;20095;-78
2023/08/31 08:23:37;;;;;;;10.93;7.70;;;;;;;32.70;100.00;100095.66;5113652;28;20032;-74
2023/08/31 08:26:03;;;;;;;11.52;6.60;;;;;;;31.84;100.00;100119.75;5114197;28;20024;-79
2023/08/31 08:28:28;;;;;;;9.52;6.25;;;;;;;33.17;100.00;100027.53;5113955;28;20131;-78
2023/08/31 08:30:54;;;;;;;9.30;6.22;;;;;;;33.34;100.00;100084.31;5114066;28;20031;-77
2023/08/31 08:33:19;;;;;;;7.57;6.03;;;;;;;33.48;100.00;100070.28;5113668;28;20027;-77
2023/08/31 08:35:45;;;;;;;16.00;6.72;;;;;;;33.22;100.00;100051.50;5114550;28;20067;-78
2023/08/31 08:38:11;;;;;;;8.48;6.20;;;;;;;33.19;100.00;100080.91;5114417;28;20051;-75
2023/08/31 08:40:36;;;;;;;12.00;6.35;;;;;;;33.17;100.00;100024.91;5114137;28;20058;-77
2023/08/31 08:43:06;;;;;;;9.80;6.60;;;;;;;32.89;100.00;100039.75;5113876;28;20032;-74
2023/08/31 08:45:41;;;;;;;10.35;6.68;;;;;;;32.30;100.00;100097.69;5113924;28;20031;-75
2023/08/31 08:48:07;;;;;;;11.93;6.65;;;;;;;31.92;100.00;100129.44;5095951;28;20035;-75
2023/08/31 08:50:33;;;;;;;9.10;6.88;;;;;;;33.21;100.00;100074.44;5113920;28;20173;-75
2023/08/31 08:53:01;;;;;;;8.85;7.00;;;;;;;32.27;100.00;100066.44;5113753;28;20040;-74
2023/08/31 08:55:27;;;;;;;10.75;7.05;;;;;;;33.26;100.00;100082.59;5113558;28;20061;-73
2023/08/31 08:57:52;;;;;;;8.48;6.50;;;;;;;33.64;100.00;100066.56;5114048;28;20031;-74
2023/08/31 09:00:18;;;;;;;7.60;6.63;;;;;;;33.58;100.00;100070.78;5113214;28;20028;-75
2023/08/31 09:02:45;;;;;;;7.78;6.05;;;;;;;33.64;100.00;100056.84;5113283;28;20061;-76
2023/08/31 09:05:10;;;;;;;6.97;6.20;;;;;;;33.77;100.00;100043.78;5112917;28;20032;-78
2023/08/31 09:07:36;;;;;;;8.32;5.80;;;;;;;33.12;100.00;100078.19;5113279;28;20042;-77
2023/08/31 09:10:03;;;;;;;10.18;6.88;;;;;;;34.24;100.00;100060.81;5113221;28;20028;-76
2023/08/31 09:12:29;;;;;;;10.57;6.07;;;;;;;33.62;100.00;100053.59;5113581;28;20111;-78
2023/08/31 09:15:02;;;;;;;9.80;6.25;;;;;;;34.42;100.00;100040.81;5113160;28;20601;-73
2023/08/31 09:17:38;;;;;;;14.20;8.80;;;;;;;33.18;100.00;100084.53;5112879;28;20061;-78
2023/08/31 09:20:04;;;;;;;9.43;6.72;;;;;;;33.84;100.00;100067.56;5113349;28;20043;-78
2023/08/31 09:22:29;;;;;;;9.75;6.20;;;;;;;33.65;100.00;100074.31;4771577;27;10000583;-76
2023/08/31 09:24:55;;;;;;;7.22;6.20;;;;;;;33.58;100.00;100064.69;5130415;27;20027;-74
2023/08/31 09:27:22;;;;;;;10.52;6.28;;;;;;;32.86;100.00;100022.47;5130223;27;20031;-76
2023/08/31 09:29:48;;;;;;;9.93;6.38;;;;;;;33.66;100.00;100017.91;5112867;27;20038;-74
2023/08/31 09:32:17;;;;;;;7.32;6.38;;;;;;;34.06;100.00;100048.09;5130952;27;20409;-74
2023/08/31 09:34:43;;;;;;;7.85;6.38;;;;;;;34.42;100.00;100048.75;5130362;27;20130;-75
2023/08/31 09:37:09;;;;;;;7.97;6.25;;;;;;;34.55;100.00;100042.72;5128437;27;20115;-74
2023/08/31 09:39:39;;;;;;;10.25;6.80;;;;;;;34.16;100.00;99987.00;5142541;27;20035;-77
2023/08/31 09:42:05;;;;;;;8.65;6.28;;;;;;;34.20;100.00;100049.81;5144855;27;20065;-77
2023/08/31 09:44:31;;;;;;;8.57;6.13;;;;;;;34.63;100.00;100034.63;5132939;27;20035;-75
2023/08/31 09:46:57;;;;;;;8.38;6.00;;;;;;;34.17;100.00;100031.69;5132979;27;20042;-78
2023/08/31 09:49:25;;;;;;;8.40;6.03;;;;;;;34.13;100.00;99993.47;5133438;27;20019;-77
2023/08/31 09:51:51;;;;;;;7.60;5.78;;;;;;;33.76;100.00;100005.19;5133430;27;20117;-79
2023/08/31 09:54:18;;;;;;;9.43;6.30;;;;;;;34.67;100.00;100012.91;5133129;27;20047;-75
2023/08/31 09:56:45;;;;;;;8.68;6.28;;;;;;;33.85;100.00;100025.16;5132863;27;20023;-75
2023/08/31 09:59:12;;;;;;;7.47;5.57;;;;;;;34.91;100.00;100011.56;5132682;27;20027;-76
2023/08/31 10:01:39;;;;;;;9.20;5.95;;;;;;;35.19;100.00;99988.50;5132412;27;20030;-74
2023/08/31 10:04:08;;;;;;;10.27;6.10;;;;;;;34.69;100.00;100007.41;5132677;27;20035;-76
2023/08/31 10:06:38;;;;;;;9.60;5.95;;;;;;;34.93;100.00;99999.78;5132680;27;20156;-76
2023/08/31 10:09:04;;;;;;;8.47;5.67;;;;;;;35.35;100.00;99953.72;5114163;28;20407;-77
2023/08/31 10:11:31;;;;;;;12.90;6.20;;;;;;;34.81;100.00;99989.97;5131940;27;20800;-78
2023/08/31 10:13:57;;;;;;;10.32;5.85;;;;;;;35.15;100.00;99991.72;5132339;27;20027;-79
2023/08/31 10:16:25;;;;;;;8.98;6.03;;;;;;;34.69;100.00;99944.00;5132952;28;20019;-78
2023/08/31 10:18:51;;;;;;;8.45;6.03;;;;;;;33.92;100.00;99994.34;5114776;28;20076;-78
2023/08/31 10:21:18;;;;;;;9.27;5.70;;;;;;;33.17;100.00;100011.72;5133244;28;20031;-78
2023/08/31 10:23:47;;;;;;;7.38;5.03;;;;;;;33.70;100.00;99984.84;5132903;28;20035;-77
2023/08/31 10:26:23;;;;;;;7.90;5.18;;;;;;;34.23;100.00;100027.50;5133304;28;20023;-79
2023/08/31 10:28:49;;;;;;;9.20;5.28;;;;;;;33.65;100.00;100047.13;5114564;28;20099;-77
2023/08/31 10:31:18;;;;;;;9.18;6.43;;;;;;;32.17;100.00;100142.22;5133187;28;20063;-78
2023/08/31 10:33:45;;;;;;;9.73;6.30;;;;;;;32.36;100.00;100146.19;5133059;28;20497;-79
2023/08/31 10:36:18;;;;;;;11.15;6.22;;;;;;;33.26;100.00;100119.53;5132562;28;20118;-80
2023/08/31 10:38:51;;;;;;;17.30;6.68;;;;;;;32.36;100.00;100136.47;5114768;28;20039;-77
2023/08/31 10:41:18;;;;;;;9.15;6.88;;;;;;;31.76;100.00;100143.50;5133279;28;20027;-78
2023/08/31 10:43:54;;;;;;;11.05;6.60;;;;;;;31.67;100.00;100160.34;5132939;28;20393;-76
2023/08/31 10:46:19;;;;;;;12.05;7.30;;;;;;;31.60;100.00;100156.75;5117524;27;20031;-71
2023/08/31 10:48:56;;;;;;;13.30;7.10;;;;;;;31.56;100.00;100147.56;5137467;27;20034;-75
2023/08/31 10:51:26;;;;;;;13.30;7.20;;;;;;;31.66;100.00;100158.69;5137359;27;20028;-78
2023/08/31 10:53:52;;;;;;;10.43;7.25;;;;;;;31.12;100.00;100128.06;5136895;27;20047;-78
2023/08/31 10:56:18;;;;;;;12.30;6.57;;;;;;;31.32;100.00;100169.50;5119114;27;20034;-79
2023/08/31 10:58:58;;;;;;;9.70;6.43;;;;;;;31.02;100.00;100122.97;5136707;27;20042;-77
2023/08/31 11:01:55;;;;;;;11.65;7.05;;;;;;;31.25;100.00;100179.09;5118290;27;20144;-77
2023/08/31 11:04:25;;;;;;;14.43;6.97;;;;;;;30.51;100.00;100184.63;5119033;27;20035;-79
2023/08/31 11:07:15;;;;;;;17.25;7.13;;;;;;;30.47;100.00;100199.06;5136480;27;20064;-74
2023/08/31 11:09:41;;;;;;;13.32;6.90;;;;;;;30.19;100.00;100147.06;5136537;27;20027;-78
2023/08/31 11:12:07;;;;;;;9.73;6.95;;;;;;;30.32;100.00;100148.25;5119026;27;20035;-81